Meteoalarm - Portugal e Ilhas:

Avisos Meteorológicos para Portugal e Ilhas


Visite-nos no Facebook:

Visite-nos no Facebook


Madeira Webcams:


Grupo MeteoRAM Facebook:

Junte-se ao melhor e mais completo grupo de Meteorologia da Região Autónoma da Madeira



Situação meteorológica que não inspira cuidado.    Sem avisos

Weather Underground Histórico da Estação

Diário Resumo para Fevereiro 23, 2018 Unidades:  Métrico    Inglês   Ambos
« Anterior Dia
Seguinte Dia »
Diário Semanal Mensal Anual Personalizado
  Atualmente: Alto: Baixo: Média:
Temperatura: 15 °C -17.8 °C 13.3 °C 15.1 °C
Ponto de orvalho: 12.8 °C -17.8 °C 11.7 °C 12.9 °C
Humidade: 87 % Humidity % 69 % 87 %
Velocidade do Vento: 5 km/h 0 km/h 0 km/h 2.6 km/h
Rajada de vento: 9.7 km/h 0 km/h - -
Vento:NNE - - South
Pressão Atmosférica: 1001.9 hPa 0 hPa 1001.6 hPa -
Precipitação: 1.27 mm      
Historical Graphs
 
 
Dados Tabulares para Fevereiro 23, 2018
Hora Temperatura Ponto de orvalho Pressão Atmosférica Vento Velocidade do Vento Rajada de vento Humidade Taxa de Precipitação (Por hora)
-17.8 °C -17.8 °C 0 hPa Calm     Humidity % 0 mm
00:00 14.4 °C 11.9 °C 1006.7 hPa NNW 1.1 km/h 5 km/h 85 % 0 mm
00:05 14.4 °C 11.9 °C 1006.7 hPa NW 1.1 km/h 3.5 km/h 85 % 0 mm
00:10 14.4 °C 11.9 °C 1006.7 hPa Calm   5 km/h 85 % 0 mm
00:15 14.5 °C 12 °C 1006.7 hPa Calm   5 km/h 85 % 0 mm
00:20 14.4 °C 11.9 °C 1006.7 hPa Calm     85 % 0 mm
00:25 14.5 °C 12 °C 1006.7 hPa North 1.1 km/h 3.5 km/h 85 % 0 mm
00:30 14.5 °C 12 °C 1006.3 hPa North 1.1 km/h 3.5 km/h 85 % 0 mm
00:35 14.4 °C 12.1 °C 1006.3 hPa North 1.1 km/h 5 km/h 86 % 0 mm
00:40 14.5 °C 12.2 °C 1006.3 hPa North 1.1 km/h 5 km/h 86 % 0 mm
00:45 14.4 °C 12.1 °C 1006.3 hPa NNW 1.1 km/h 3.5 km/h 86 % 0 mm
00:50 14.4 °C 12.1 °C 1006 hPa NNW 2.6 km/h 5 km/h 86 % 0 mm
00:55 14.4 °C 12.1 °C 1006 hPa NNW 1.1 km/h 5 km/h 86 % 0 mm
01:00 14.4 °C 12.3 °C 1006 hPa North 1.1 km/h 5 km/h 87 % 0 mm
01:05 14.4 °C 12.3 °C 1006 hPa North 1.1 km/h 3.5 km/h 87 % 0 mm
01:10 14.4 °C 12.3 °C 1006 hPa NNW 1.1 km/h 5 km/h 87 % 0 mm
01:15 14.3 °C 12.2 °C 1006 hPa North 1.1 km/h 5 km/h 87 % 0 mm
01:20 14.4 °C 12.3 °C 1006 hPa North 2.6 km/h 5 km/h 87 % 0 mm
01:25 14.4 °C 12.4 °C 1005.6 hPa North 1.1 km/h 5 km/h 88 % 0 mm
01:30 14.4 °C 12.4 °C 1005.6 hPa North 2.6 km/h 5 km/h 88 % 0 mm
01:35 14.4 °C 12.6 °C 1005.6 hPa NNW 2.6 km/h 6.1 km/h 89 % 0 mm
01:40 14.3 °C 12.5 °C 1005.6 hPa North 3.5 km/h 9.7 km/h 89 % 0 mm
01:45 14.3 °C 12.7 °C 1005.6 hPa North 1.1 km/h 9.7 km/h 90 % 0 mm
01:50 14.3 °C 12.7 °C 1005.6 hPa North 1.1 km/h 9.7 km/h 90 % 0 mm
01:55 14.3 °C 12.7 °C 1005.3 hPa North 3.5 km/h 6.1 km/h 90 % 0 mm
02:00 14.3 °C 12.7 °C 1005.6 hPa Calm   6.1 km/h 90 % 0 mm
02:05 14.3 °C 12.8 °C 1005.3 hPa NNW 6.1 km/h 12.2 km/h 91 % 0 mm
02:10 14.4 °C 12.9 °C 1005.3 hPa NNE 2.6 km/h 15.8 km/h 91 % 0 mm
02:15 14.5 °C 13.1 °C 1005.6 hPa Calm   15.8 km/h 91 % 0 mm
02:20 14.7 °C 13.3 °C 1005.3 hPa East 5 km/h 11.1 km/h 91 % 0 mm
02:25 14.8 °C 13.3 °C 1005.3 hPa SE 6.1 km/h 15.8 km/h 91 % 0 mm
02:30 14.8 °C 13.3 °C 1005.3 hPa ESE 6.1 km/h 19.5 km/h 91 % 0 mm
02:35 14.8 °C 13.2 °C 1005.3 hPa East 5 km/h 21.9 km/h 90 % 0 mm
02:40 14.8 °C 13.2 °C 1005.3 hPa ESE 3.5 km/h 21.9 km/h 90 % 0 mm
02:45 14.8 °C 13.2 °C 1005.3 hPa SE 6.1 km/h 13.4 km/h 90 % 0 mm
02:50 14.8 °C 13 °C 1005 hPa ESE 5 km/h 13.4 km/h 89 % 0 mm
02:55 14.8 °C 13 °C 1005.3 hPa East 7.2 km/h 13.4 km/h 89 % 0 mm
03:00 14.8 °C 13 °C 1005 hPa ESE 6.1 km/h 14.8 km/h 89 % 0 mm
03:05 14.7 °C 12.7 °C 1005 hPa SSE 6.1 km/h 17.2 km/h 88 % 0 mm
03:10 14.7 °C 12.7 °C 1005 hPa SSW 6.1 km/h 17.2 km/h 88 % 0 mm
03:15 14.7 °C 13.1 °C 1005 hPa SSW 2.6 km/h 17.2 km/h 90 % 0 mm
03:20 14.6 °C 13 °C 1005 hPa SSE 3.5 km/h 17.2 km/h 90 % 0 mm
03:25 14.4 °C 12.9 °C 1005 hPa SSE 6.1 km/h 14.8 km/h 91 % 0 mm
03:31 14.2 °C 12.9 °C 1005 hPa SSE 5 km/h 17.2 km/h 92 % 0 mm
03:36 14.1 °C 12.8 °C 1005 hPa South 5 km/h 17.2 km/h 92 % 0 mm
03:41 14 °C 12.9 °C 1005 hPa SSW 6.1 km/h 13.4 km/h 93 % 0 mm
03:46 13.8 °C 12.7 °C 1004.6 hPa SW 5 km/h 14.8 km/h 93 % 0 mm
03:51 13.7 °C 12.6 °C 1004.6 hPa Calm   14.8 km/h 93 % 0 mm
03:56 13.6 °C 12.7 °C 1004.6 hPa Calm   9.7 km/h 94 % 0 mm
04:01 13.6 °C 12.7 °C 1004.6 hPa East 1.1 km/h 8.7 km/h 94 % 0 mm
04:06 13.6 °C 12.7 °C 1004.6 hPa NE 2.6 km/h 6.1 km/h 94 % 0 mm
04:11 13.6 °C 12.7 °C 1004.6 hPa East 1.1 km/h 7.2 km/h 94 % 0 mm
04:16 13.6 °C 12.7 °C 1004.6 hPa ENE 3.5 km/h 7.2 km/h 94 % 0 mm
04:21 13.5 °C 12.6 °C 1004.6 hPa Calm   9.7 km/h 94 % 0 mm
04:26 13.5 °C 12.6 °C 1004.6 hPa Calm   9.7 km/h 94 % 0 mm
04:31 13.6 °C 12.7 °C 1004.3 hPa WSW 1.1 km/h 2.6 km/h 94 % 0 mm
04:36 13.5 °C 12.7 °C 1004.3 hPa WNW 1.1 km/h 3.5 km/h 95 % 0 mm
04:41 13.6 °C 12.8 °C 1003.9 hPa NNW 1.1 km/h 3.5 km/h 95 % 0 mm
04:46 13.5 °C 12.7 °C 1003.9 hPa NNW 2.6 km/h 5 km/h 95 % 0 mm
04:51 13.5 °C 12.7 °C 1003.9 hPa Calm   5 km/h 95 % 0 mm
04:56 13.5 °C 12.9 °C 1003.9 hPa Calm   5 km/h 96 % 0 mm
05:01 13.5 °C 12.9 °C 1003.9 hPa NNW 1.1 km/h 3.5 km/h 96 % 0 mm
05:06 13.5 °C 12.9 °C 1003.9 hPa Calm   3.5 km/h 96 % 0 mm
05:11 13.5 °C 12.9 °C 1003.9 hPa Calm   3.5 km/h 96 % 0 mm
05:16 13.4 °C 12.8 °C 1003.9 hPa WNW 1.1 km/h 3.5 km/h 96 % 0 mm
05:21 13.4 °C 12.8 °C 1003.9 hPa NW 1.1 km/h 5 km/h 96 % 0 mm
05:26 13.4 °C 12.9 °C 1003.9 hPa North 2.6 km/h 7.2 km/h 97 % 0 mm
05:31 13.4 °C 12.9 °C 1003.9 hPa North 1.1 km/h 7.2 km/h 97 % 0 mm
05:36 13.4 °C 12.9 °C 1003.9 hPa Calm   6.1 km/h 97 % 0 mm
05:41 13.3 °C 13 °C 1003.9 hPa NW 1.1 km/h 3.5 km/h 98 % 0 mm
05:46 13.3 °C 13 °C 1003.9 hPa WNW 1.1 km/h 3.5 km/h 98 % 0 mm
05:51 13.3 °C 13 °C 1003.6 hPa NW 2.6 km/h 5 km/h 98 % 0.25 mm
05:56 13.3 °C 13 °C 1003.6 hPa Calm   5 km/h 98 % 0.25 mm
06:01 13.3 °C 13 °C 1003.6 hPa NNW 1.1 km/h 5 km/h 98 % 0.25 mm
06:06 13.3 °C 13 °C 1003.6 hPa NNW 1.1 km/h 3.5 km/h 98 % 0.25 mm
06:11 13.3 °C 13.2 °C 1003.6 hPa North 2.6 km/h 5 km/h 99 % 0.25 mm
06:16 13.3 °C 13.2 °C 1003.6 hPa North 2.6 km/h 5 km/h 99 % 0.25 mm
06:21 13.3 °C 13.2 °C 1003.6 hPa Calm   5 km/h 99 % 0.25 mm
06:26 13.3 °C 13.2 °C 1003.6 hPa NNW 1.1 km/h 5 km/h 99 % 0.25 mm
06:31 13.3 °C 13.3 °C 1003.6 hPa Calm   3.5 km/h 100 % 0.25 mm
06:36 13.3 °C 13.3 °C 1003.6 hPa Calm   3.5 km/h 100 % 0.25 mm
06:41 13.3 °C 13.3 °C 1003.6 hPa NNW 1.1 km/h 3.5 km/h 100 % 0.25 mm
06:46 13.3 °C 13.3 °C 1003.9 hPa Calm   3.5 km/h 100 % 0.25 mm
06:51 13.3 °C 13.3 °C 1003.6 hPa North 2.6 km/h 5 km/h 100 % 0 mm
06:56 13.3 °C 13.3 °C 1003.6 hPa North 1.1 km/h 6.1 km/h 100 % 0 mm
07:01 13.3 °C 13.3 °C 1003.6 hPa NNW 1.1 km/h 6.1 km/h 100 % 0 mm
07:07 13.3 °C 13.3 °C 1003.6 hPa NNW 3.5 km/h 5 km/h 100 % 0 mm
07:12 13.3 °C 13.3 °C 1003.6 hPa North 3.5 km/h 6.1 km/h 100 % 0 mm
07:17 13.3 °C 13.3 °C 1003.6 hPa North 2.6 km/h 6.1 km/h 100 % 0 mm
07:22 13.3 °C 13.3 °C 1003.9 hPa Calm   6.1 km/h 100 % 0 mm
07:27 13.3 °C 13.3 °C 1003.9 hPa Calm   5 km/h 100 % 0 mm
07:32 13.3 °C 13.3 °C 1003.6 hPa Calm   3.5 km/h 100 % 0 mm
07:37 13.3 °C 13.3 °C 1003.6 hPa Calm   3.5 km/h 100 % 0 mm
07:42 13.4 °C 13.4 °C 1003.6 hPa Calm     100 % 0 mm
07:47 13.4 °C 13.4 °C 1003.6 hPa Calm     100 % 0 mm
07:52 13.4 °C 13.4 °C 1003.9 hPa Calm   5 km/h 100 % 0 mm
07:57 13.5 °C 13.5 °C 1003.9 hPa NNE 5 km/h 7.2 km/h 100 % 0 mm
08:02 13.6 °C 13.6 °C 1003.9 hPa East 7.2 km/h 14.8 km/h 100 % 0 mm
08:07 13.6 °C 13.6 °C 1003.9 hPa ESE 3.5 km/h 14.8 km/h 100 % 0.25 mm
08:12 13.5 °C 13.5 °C 1003.9 hPa Calm   13.4 km/h 100 % 0.51 mm
08:17 13.5 °C 13.5 °C 1003.9 hPa SSW 2.6 km/h 9.7 km/h 100 % 1.02 mm
08:22 13.6 °C 13.6 °C 1003.9 hPa North 2.6 km/h 5 km/h 100 % 1.02 mm
08:27 13.6 °C 13.6 °C 1003.9 hPa North 2.6 km/h 5 km/h 100 % 1.02 mm
08:32 13.7 °C 13.7 °C 1003.9 hPa Calm   5 km/h 100 % 1.02 mm
08:37 13.7 °C 13.7 °C 1003.9 hPa Calm   5 km/h 100 % 1.02 mm
08:42 13.7 °C 13.7 °C 1003.9 hPa NNW 2.6 km/h 6.1 km/h 100 % 1.02 mm
08:47 13.8 °C 13.8 °C 1003.9 hPa NNW 1.1 km/h 6.1 km/h 100 % 1.02 mm
08:52 13.8 °C 13.8 °C 1003.6 hPa Calm   5 km/h 100 % 1.02 mm
08:57 13.8 °C 13.8 °C 1003.9 hPa Calm   5 km/h 100 % 1.02 mm
09:02 13.8 °C 13.8 °C 1003.9 hPa WNW 1.1 km/h 5 km/h 100 % 1.02 mm
09:07 13.9 °C 13.9 °C 1003.9 hPa Calm   5 km/h 100 % 0.51 mm
09:12 14 °C 14 °C 1003.9 hPa North 1.1 km/h 6.1 km/h 100 % 0.25 mm
09:17 14 °C 14 °C 1003.9 hPa Calm   6.1 km/h 100 % 0 mm
09:22 14 °C 14 °C 1003.9 hPa Calm   5 km/h 100 % 0 mm
09:32 14.2 °C 14.2 °C 1003.9 hPa Calm   3.5 km/h 100 % 0 mm
09:37 14.2 °C 14.2 °C 1003.9 hPa West 1.1 km/h 3.5 km/h 100 % 0 mm
09:42 14.3 °C 14.3 °C 1003.9 hPa SSW 7.2 km/h 11.1 km/h 100 % 0 mm
09:47 14.4 °C 14.4 °C 1003.9 hPa SSW 8.7 km/h 12.2 km/h 100 % 0 mm
09:52 14.5 °C 14.5 °C 1004.3 hPa South 7.2 km/h 14.8 km/h 100 % 0 mm
09:57 14.6 °C 14.6 °C 1003.9 hPa SSW 3.5 km/h 14.8 km/h 100 % 0 mm
10:02 14.6 °C 14.6 °C 1004.3 hPa SSW 2.6 km/h 9.7 km/h 100 % 0 mm
10:07 14.5 °C 14.5 °C 1003.9 hPa Calm   7.2 km/h 100 % 0 mm
10:12 14.4 °C 14.4 °C 1004.3 hPa ENE 6.1 km/h 8.7 km/h 100 % 0 mm
10:18 14.5 °C 14.5 °C 1004.3 hPa Calm   8.7 km/h 100 % 0 mm
10:23 14.6 °C 14.6 °C 1004.3 hPa Calm   6.1 km/h 100 % 0 mm
10:28 14.9 °C 14.9 °C 1003.9 hPa NNW 1.1 km/h 6.1 km/h 100 % 0 mm
10:33 15 °C 15 °C 1004.3 hPa Calm   6.1 km/h 100 % 0 mm
10:38 15.1 °C 15.1 °C 1003.9 hPa Calm   5 km/h 100 % 0 mm
10:43 15.3 °C 15.3 °C 1003.9 hPa Calm   6.1 km/h 100 % 0 mm
10:48 15.4 °C 15.4 °C 1003.9 hPa Calm   6.1 km/h 100 % 0 mm
10:53 15.5 °C 15.3 °C 1003.9 hPa North 2.6 km/h 5 km/h 99 % 0 mm
10:58 15.6 °C 15.3 °C 1003.9 hPa Calm   5 km/h 98 % 0 mm
11:03 15.7 °C 15.4 °C 1003.9 hPa Calm   5 km/h 98 % 0 mm
11:08 15.8 °C 15.5 °C 1003.9 hPa East 1.1 km/h 5 km/h 98 % 0 mm
11:13 15.9 °C 15.4 °C 1003.9 hPa Calm   5 km/h 97 % 0 mm
11:18 15.9 °C 15.3 °C 1003.9 hPa East 3.5 km/h 7.2 km/h 96 % 0 mm
11:23 16 °C 15.1 °C 1003.9 hPa East 3.5 km/h 11.1 km/h 94 % 0 mm
11:28 16.1 °C 14.4 °C 1003.9 hPa ENE 3.5 km/h 11.1 km/h 90 % 0 mm
11:33 16.2 °C 14.1 °C 1003.9 hPa East 2.6 km/h 12.2 km/h 87 % 0 mm
11:38 16.2 °C 13.5 °C 1003.6 hPa SE 2.6 km/h 13.4 km/h 84 % 0 mm
11:43 16.3 °C 13.4 °C 1003.6 hPa SE 2.6 km/h 13.4 km/h 83 % 0 mm
11:48 16.5 °C 13.6 °C 1003.6 hPa East 5 km/h 13.4 km/h 83 % 0 mm
11:53 16.6 °C 13.3 °C 1003.6 hPa ESE 2.6 km/h 13.4 km/h 81 % 0 mm
11:58 16.8 °C 13.6 °C 1003.3 hPa SE 2.6 km/h 13.4 km/h 81 % 0 mm
12:03 16.9 °C 13.2 °C 1003.6 hPa ESE 3.5 km/h 11.1 km/h 79 % 0 mm
12:08 17.1 °C 13.1 °C 1003.3 hPa East 3.5 km/h 12.2 km/h 77 % 0 mm
12:13 17.4 °C 13.7 °C 1003.3 hPa ESE 1.1 km/h 12.2 km/h 79 % 0 mm
12:18 17.5 °C 13.1 °C 1003.3 hPa SSE 5 km/h 19.5 km/h 75 % 0 mm
12:23 17.5 °C 13.1 °C 1003.3 hPa SE 5 km/h 19.5 km/h 75 % 0 mm
12:28 17.4 °C 12.7 °C 1003.3 hPa ESE 6.1 km/h 14.8 km/h 74 % 0 mm
12:33 17.5 °C 13.1 °C 1003.3 hPa SE 5 km/h 14.8 km/h 75 % 0 mm
12:38 17.5 °C 12.4 °C 1003.3 hPa SE 2.6 km/h 14.8 km/h 72 % 0 mm
12:43 17.5 °C 12.6 °C 1003.3 hPa SSE 2.6 km/h 14.8 km/h 73 % 0 mm
12:48 17.5 °C 12.6 °C 1002.9 hPa SE 5 km/h 14.8 km/h 73 % 0 mm
12:53 17.5 °C 12.6 °C 1002.9 hPa ESE 5 km/h 14.8 km/h 73 % 0 mm
12:58 17.7 °C 13 °C 1002.9 hPa Calm   14.8 km/h 74 % 0 mm
13:03 17.7 °C 12.6 °C 1002.9 hPa South 5 km/h 13.4 km/h 72 % 0 mm
13:08 17.7 °C 12.6 °C 1002.9 hPa SSE 3.5 km/h 13.4 km/h 72 % 0 mm
13:13 17.6 °C 12.5 °C 1002.9 hPa SE 3.5 km/h 14.8 km/h 72 % 0 mm
13:18 17.6 °C 12.5 °C 1002.9 hPa SE 6.1 km/h 15.8 km/h 72 % 0 mm
13:23 17.6 °C 12.5 °C 1002.6 hPa SE 6.1 km/h 15.8 km/h 72 % 0 mm
13:28 17.7 °C 12.8 °C 1002.6 hPa SSE 6.1 km/h 18.3 km/h 73 % 0 mm
13:33 17.9 °C 12.8 °C 1002.6 hPa SSE 6.1 km/h 18.3 km/h 72 % 0 mm
13:38 17.8 °C 12.3 °C 1002.6 hPa SSE 6.1 km/h 15.8 km/h 70 % 0 mm
13:43 17.8 °C 12.5 °C 1002.6 hPa South 7.2 km/h 15.8 km/h 71 % 0 mm
13:48 17.7 °C 12.6 °C 1002.3 hPa South 6.1 km/h 15.8 km/h 72 % 0 mm
13:53 17.6 °C 12.5 °C 1002.6 hPa South 6.1 km/h 14.8 km/h 72 % 0 mm
13:59 17.6 °C 12.5 °C 1002.3 hPa South 6.1 km/h 14.8 km/h 72 % 0 mm
14:04 17.5 °C 12.4 °C 1002.3 hPa South 6.1 km/h 14.8 km/h 72 % 0 mm
14:09 17.5 °C 12.6 °C 1002.6 hPa South 8.7 km/h 14.8 km/h 73 % 0 mm
14:14 17.4 °C 12.5 °C 1002.3 hPa SSE 5 km/h 17.2 km/h 73 % 0 mm
14:19 17.4 °C 12.7 °C 1002.3 hPa SE 6.1 km/h 17.2 km/h 74 % 0 mm
14:24 17.4 °C 12.5 °C 1002.3 hPa SSE 5 km/h 15.8 km/h 73 % 0 mm
14:29 17.5 °C 12.4 °C 1002.3 hPa SE 7.2 km/h 15.8 km/h 72 % 0 mm
14:34 17.4 °C 12.3 °C 1002.3 hPa SE 7.2 km/h 13.4 km/h 72 % 0 mm
14:39 17.5 °C 12 °C 1002.3 hPa SSE 3.5 km/h 13.4 km/h 70 % 0 mm
14:44 17.4 °C 11.7 °C 1001.9 hPa SE 6.1 km/h 12.2 km/h 69 % 0 mm
14:49 17.4 °C 11.7 °C 1001.9 hPa SE 3.5 km/h 12.2 km/h 69 % 0 mm
14:54 17.4 °C 11.9 °C 1001.9 hPa SE 6.1 km/h 18.3 km/h 70 % 0 mm
14:59 17.5 °C 12.4 °C 1001.9 hPa SE 2.6 km/h 18.3 km/h 72 % 0 mm
15:04 17.4 °C 12.7 °C 1001.9 hPa ESE 7.2 km/h 12.2 km/h 74 % 0 mm
15:09 17.4 °C 12.7 °C 1001.9 hPa East 5 km/h 12.2 km/h 74 % 0 mm
15:14 17.3 °C 12.4 °C 1001.9 hPa ESE 6.1 km/h 12.2 km/h 73 % 0 mm
15:19 17.4 °C 12.3 °C 1001.9 hPa SE 6.1 km/h 12.2 km/h 72 % 0 mm
15:24 17.3 °C 11.8 °C 1001.6 hPa SSE 3.5 km/h 14.8 km/h 70 % 0 mm
15:29 17.3 °C 12.2 °C 1001.6 hPa SSE 5 km/h 14.8 km/h 72 % 0 mm
15:34 17.2 °C 12.3 °C 1001.9 hPa SSE 7.2 km/h 13.4 km/h 73 % 0 mm
15:39 17.2 °C 12.7 °C 1001.6 hPa SSE 3.5 km/h 14.8 km/h 75 % 0 mm
15:44 17 °C 12.7 °C 1001.6 hPa ESE 6.1 km/h 14.8 km/h 76 % 0 mm
15:49 16.8 °C 12.6 °C 1001.9 hPa East 1.1 km/h 13.4 km/h 76 % 0 mm
15:50 16.8 °C 12.8 °C 1001.6 hPa East 5 km/h 13.4 km/h 77 % 0 mm
15:55 16.7 °C 12.7 °C 1001.9 hPa NE 2.6 km/h 9.7 km/h 77 % 0 mm
16:00 16.7 °C 12.8 °C 1001.6 hPa ENE 2.6 km/h 9.7 km/h 78 % 0 mm
16:05 16.7 °C 12.8 °C 1001.6 hPa Calm   9.7 km/h 78 % 0 mm
16:10 16.7 °C 12.8 °C 1001.6 hPa Calm   6.1 km/h 78 % 0 mm
16:15 16.7 °C 12.8 °C 1001.6 hPa Calm   6.1 km/h 78 % 0 mm
16:20 16.7 °C 12.8 °C 1001.6 hPa East 2.6 km/h 6.1 km/h 78 % 0 mm
16:25 16.8 °C 13.2 °C 1001.6 hPa ESE 5 km/h 7.2 km/h 79 % 0 mm
16:30 16.8 °C 12.9 °C 1001.6 hPa Calm   7.2 km/h 78 % 0 mm
16:35 16.8 °C 13.2 °C 1001.6 hPa Calm   7.2 km/h 79 % 0 mm
16:41 16.8 °C 12.9 °C 1001.6 hPa Calm   6.1 km/h 78 % 0 mm
16:46 16.8 °C 12.9 °C 1001.6 hPa East 3.5 km/h 9.7 km/h 78 % 0 mm
16:51 16.9 °C 13.2 °C 1001.6 hPa NE 2.6 km/h 9.7 km/h 79 % 0 mm
16:56 16.9 °C 13.2 °C 1001.6 hPa North 2.6 km/h 7.2 km/h 79 % 0 mm
17:01 16.8 °C 13.2 °C 1001.6 hPa Calm   7.2 km/h 79 % 0 mm
17:06 16.8 °C 13.2 °C 1001.9 hPa NNE 1.1 km/h 5 km/h 79 % 0 mm
17:11 16.7 °C 13.1 °C 1001.6 hPa WNW 1.1 km/h 7.2 km/h 79 % 0 mm
17:16 16.7 °C 13.1 °C 1001.6 hPa Calm   7.2 km/h 79 % 0 mm
17:21 16.7 °C 13.1 °C 1001.6 hPa NNW 2.6 km/h 6.1 km/h 79 % 0 mm
17:26 16.6 °C 12.9 °C 1001.6 hPa North 1.1 km/h 6.1 km/h 79 % 0 mm
17:31 16.5 °C 12.8 °C 1001.6 hPa North 1.1 km/h 6.1 km/h 79 % 0 mm
17:36 16.5 °C 12.8 °C 1001.6 hPa NNE 1.1 km/h 6.1 km/h 79 % 0 mm
17:41 16.5 °C 12.8 °C 1001.6 hPa Calm   5 km/h 79 % 0 mm
17:46 16.5 °C 12.8 °C 1001.6 hPa Calm   6.1 km/h 79 % 0 mm
17:51 16.4 °C 12.6 °C 1001.6 hPa ENE 1.1 km/h 6.1 km/h 78 % 0 mm
17:56 16.4 °C 12.6 °C 1001.6 hPa ENE 1.1 km/h 8.7 km/h 78 % 0 mm
18:01 16.4 °C 12.6 °C 1001.6 hPa East 2.6 km/h 8.7 km/h 78 % 0 mm
18:06 16.4 °C 12.4 °C 1001.6 hPa East 3.5 km/h 8.7 km/h 77 % 0 mm
18:11 16.4 °C 12.4 °C 1001.6 hPa East 1.1 km/h 8.7 km/h 77 % 0 mm
18:16 16.4 °C 12.6 °C 1001.6 hPa East 1.1 km/h 8.7 km/h 78 % 0 mm
18:21 16.4 °C 12.6 °C 1001.6 hPa NE 1.1 km/h 5 km/h 78 % 0 mm
18:26 16.4 °C 12.8 °C 1001.6 hPa NNE 2.6 km/h 7.2 km/h 79 % 0 mm
18:31 16.3 °C 12.7 °C 1001.6 hPa North 2.6 km/h 7.2 km/h 79 % 0 mm
18:36 16.1 °C 12.4 °C 1001.9 hPa North 2.6 km/h 6.1 km/h 79 % 0 mm
18:41 16 °C 12.6 °C 1001.9 hPa NNE 5 km/h 8.7 km/h 80 % 0 mm
18:46 15.8 °C 12.7 °C 1001.9 hPa NE 5 km/h 11.1 km/h 82 % 0 mm
18:51 15.7 °C 12.7 °C 1001.9 hPa NNE 6.1 km/h 11.1 km/h 82 % 0 mm
18:56 15.7 °C 12.7 °C 1001.9 hPa North 6.1 km/h 9.7 km/h 82 % 0 mm
19:02 15.5 °C 12.8 °C 1001.9 hPa North 1.1 km/h 9.7 km/h 84 % 0 mm
19:07 15.4 °C 12.7 °C 1001.9 hPa North 5 km/h 9.7 km/h 84 % 0 mm
19:12 15.4 °C 12.7 °C 1001.9 hPa North 3.5 km/h 7.2 km/h 84 % 0 mm
19:17 15.3 °C 12.8 °C 1001.9 hPa North 5 km/h 7.2 km/h 85 % 0 mm
19:22 15.3 °C 12.8 °C 1001.9 hPa North 3.5 km/h 8.7 km/h 85 % 0 mm
19:27 15.2 °C 12.9 °C 1001.9 hPa NNW 1.1 km/h 8.7 km/h 86 % 0 mm
19:32 15.2 °C 12.9 °C 1001.9 hPa NNW 2.6 km/h 8.7 km/h 86 % 0 mm
19:37 15.1 °C 12.8 °C 1001.9 hPa NNW 2.6 km/h 7.2 km/h 86 % 0 mm
19:42 15.1 °C 12.8 °C 1001.9 hPa NNW 3.5 km/h 7.2 km/h 86 % 0 mm
19:47 15.1 °C 12.8 °C 1001.9 hPa North 1.1 km/h 6.1 km/h 86 % 0 mm
19:52 15.1 °C 12.9 °C 1001.9 hPa North 1.1 km/h 6.1 km/h 87 % 0 mm
19:57 15 °C 12.8 °C 1001.9 hPa North 2.6 km/h 5 km/h 87 % 0 mm
20:02 15 °C 12.8 °C 1001.9 hPa NNE 5 km/h 9.7 km/h 87 % 0 mm
MeteoMachico
Cumprimentos de Weather Underground - 2.75 mb

Script original por  Jim McMurry - jmcmurry@mwt.net Adaptado para o modelo por  Wim van der Kuil - Leuven-Template.eu

Equipamento que usamos:

Estação Meteorológica
Weatherwise ws-1080

IPCAM
Dericam H502W

Servidor
Digital Ocean

Weatherwise ws-1080

Dericam H502W

Digital Ocean